Time;durP1;ratioP1;P1;durP2;ratioP2;P2;SDS_P1;SDS_P2;PMS_P1;PMS_P2;Temp;Humidity;BMP_temperature;BMP_pressure;BME280_temperature;BME280_humidity;BME280_pressure;Samples;Min_cycle;Max_cycle;Signal;HPM_P1;HPM_P2
2021/06/25 00:02:10;;;;;;;1.50;1.00;;;18.10;98.20;;;;;;4951650;28;20486;-77
2021/06/25 00:04:37;;;;;;;1.53;0.90;;;18.10;98.20;;;;;;4960195;28;20498;-77
2021/06/25 00:07:04;;;;;;;1.50;0.90;;;18.10;98.20;;;;;;4970876;28;20800;-77
2021/06/25 00:09:31;;;;;;;1.50;0.90;;;18.00;98.20;;;;;;4970425;28;20489;-78
2021/06/25 00:11:59;;;;;;;1.50;1.03;;;18.00;98.00;;;;;;4959887;28;20981;-77
2021/06/25 00:14:26;;;;;;;1.50;1.00;;;18.00;98.10;;;;;;4965247;28;20506;-77
2021/06/25 00:16:54;;;;;;;1.50;1.00;;;18.00;98.10;;;;;;4959696;28;20492;-77
2021/06/25 00:19:21;;;;;;;1.50;0.90;;;18.00;98.20;;;;;;4967171;28;20508;-77
2021/06/25 00:21:49;;;;;;;1.50;0.90;;;18.00;98.20;;;;;;4966574;28;20491;-77
2021/06/25 00:24:16;;;;;;;1.53;1.00;;;18.00;98.20;;;;;;4977343;28;20497;-78
2021/06/25 00:26:42;;;;;;;1.50;0.90;;;18.00;98.10;;;;;;4963836;28;20530;-78
2021/06/25 00:29:11;;;;;;;1.50;1.00;;;18.00;98.20;;;;;;4971941;28;21774;-77
2021/06/25 00:31:37;;;;;;;1.50;0.90;;;17.90;98.20;;;;;;4954610;28;20491;-77
2021/06/25 00:34:05;;;;;;;1.50;0.90;;;17.90;98.20;;;;;;4962927;28;20490;-77
2021/06/25 00:36:32;;;;;;;1.50;1.00;;;17.90;98.20;;;;;;4956473;28;20486;-77
2021/06/25 00:38:59;;;;;;;1.50;0.90;;;17.90;98.10;;;;;;4969531;28;20486;-78
2021/06/25 00:41:26;;;;;;;1.53;1.00;;;17.80;98.00;;;;;;4952431;28;20506;-77
2021/06/25 00:43:52;;;;;;;1.50;1.00;;;17.80;98.20;;;;;;4963084;28;20494;-77
2021/06/25 00:46:21;;;;;;;1.50;1.00;;;17.80;98.20;;;;;;4963803;28;20768;-76
2021/06/25 00:48:48;;;;;;;1.50;1.00;;;17.80;98.20;;;;;;4977768;28;20486;-76
2021/06/25 00:51:14;;;;;;;1.50;0.97;;;17.70;98.20;;;;;;4954331;28;20632;-77
2021/06/25 00:53:42;;;;;;;1.50;1.00;;;17.70;98.20;;;;;;4959157;28;20779;-77
2021/06/25 00:56:11;;;;;;;1.50;0.90;;;17.60;98.20;;;;;;4958678;28;22144;-78
2021/06/25 00:58:38;;;;;;;1.50;1.00;;;17.60;98.20;;;;;;4965572;28;21586;-77
2021/06/25 01:01:05;;;;;;;1.50;1.00;;;17.50;98.20;;;;;;4957640;28;21152;-77
2021/06/25 01:03:35;;;;;;;1.50;1.00;;;17.40;98.20;;;;;;4966526;28;20469;-77
2021/06/25 01:06:02;;;;;;;1.50;0.97;;;17.30;98.20;;;;;;4950962;28;20975;-77
2021/06/25 01:08:30;;;;;;;1.50;1.00;;;17.30;98.20;;;;;;4980587;28;20474;-77
2021/06/25 01:10:56;;;;;;;1.50;1.00;;;17.20;98.20;;;;;;4951927;28;20835;-77
2021/06/25 01:13:25;;;;;;;1.50;1.00;;;17.20;98.20;;;;;;4981444;28;21057;-77
2021/06/25 01:15:52;;;;;;;1.53;1.00;;;17.10;98.20;;;;;;4946900;28;20467;-78
2021/06/25 01:18:18;;;;;;;1.50;1.00;;;17.10;98.20;;;;;;4963009;28;20925;-78
2021/06/25 01:20:46;;;;;;;1.50;0.90;;;17.00;98.20;;;;;;4955432;28;20462;-77
2021/06/25 01:23:15;;;;;;;1.60;1.10;;;17.00;98.20;;;;;;4965658;28;20469;-78
2021/06/25 01:25:41;;;;;;;1.50;1.00;;;16.90;98.20;;;;;;4962211;28;20976;-77
2021/06/25 01:28:10;;;;;;;1.50;1.00;;;16.90;98.20;;;;;;4957964;28;20482;-78
2021/06/25 01:30:38;;;;;;;1.60;1.20;;;16.80;98.20;;;;;;4964777;28;20652;-78
2021/06/25 01:33:08;;;;;;;1.53;1.00;;;16.80;98.20;;;;;;4973144;28;20486;-77
2021/06/25 01:35:36;;;;;;;1.50;0.93;;;16.70;98.20;;;;;;4965454;28;20461;-77
2021/06/25 01:38:04;;;;;;;1.50;1.00;;;16.70;98.20;;;;;;4972253;28;20488;-77
2021/06/25 01:40:32;;;;;;;1.50;1.00;;;16.70;98.20;;;;;;4966459;28;20486;-78
2021/06/25 01:43:01;;;;;;;1.50;1.00;;;16.60;98.20;;;;;;4972397;28;20485;-77
2021/06/25 01:45:31;;;;;;;1.53;1.10;;;16.60;98.20;;;;;;4967416;28;20474;-77
2021/06/25 01:47:58;;;;;;;1.50;1.00;;;16.50;98.20;;;;;;4957349;28;20493;-76
2021/06/25 01:50:27;;;;;;;1.50;1.00;;;16.50;98.20;;;;;;4965088;28;20582;-78
2021/06/25 01:52:56;;;;;;;1.50;1.00;;;16.50;98.20;;;;;;4972874;28;20484;-77
2021/06/25 01:55:24;;;;;;;1.50;0.90;;;16.50;98.20;;;;;;4968141;28;20533;-78
2021/06/25 01:57:52;;;;;;;1.50;1.00;;;16.50;98.20;;;;;;4952863;28;20482;-78
2021/06/25 02:00:20;;;;;;;1.50;0.97;;;16.40;98.20;;;;;;4966976;28;20486;-78
2021/06/25 02:02:47;;;;;;;1.50;0.90;;;16.40;98.20;;;;;;4954270;28;20492;-77
2021/06/25 02:05:16;;;;;;;1.50;1.00;;;16.40;98.20;;;;;;4961610;28;20462;-78
2021/06/25 02:07:43;;;;;;;1.57;1.00;;;16.30;98.20;;;;;;4953208;28;20497;-78
2021/06/25 02:10:11;;;;;;;1.60;1.00;;;16.30;98.20;;;;;;4966597;28;20485;-77
2021/06/25 02:12:39;;;;;;;1.50;1.00;;;16.30;98.20;;;;;;4955291;28;20486;-77
2021/06/25 02:15:09;;;;;;;1.50;1.00;;;16.20;98.20;;;;;;4961029;28;20895;-77
2021/06/25 02:17:36;;;;;;;1.50;1.00;;;16.20;98.20;;;;;;4954580;28;20818;-77
2021/06/25 02:20:05;;;;;;;1.50;1.00;;;16.20;98.20;;;;;;4959994;28;20869;-78
2021/06/25 02:22:32;;;;;;;1.50;1.00;;;16.20;98.20;;;;;;4949479;28;20972;-78
2021/06/25 02:24:58;;;;;;;1.57;1.00;;;16.20;98.20;;;;;;4964694;28;20593;-78
2021/06/25 02:27:25;;;;;;;1.50;1.00;;;16.20;98.20;;;;;;4957784;28;20489;-76
2021/06/25 02:29:52;;;;;;;1.50;1.00;;;16.10;98.20;;;;;;4960648;28;20486;-77
2021/06/25 02:32:20;;;;;;;1.53;1.00;;;16.10;98.20;;;;;;4955808;28;20484;-77
2021/06/25 02:34:47;;;;;;;1.50;1.00;;;16.10;98.20;;;;;;4965148;28;20485;-78
2021/06/25 02:37:13;;;;;;;1.57;1.03;;;16.10;98.20;;;;;;4958239;28;20477;-77
2021/06/25 02:39:40;;;;;;;1.60;1.10;;;16.00;98.20;;;;;;4965859;28;20486;-77
2021/06/25 02:42:07;;;;;;;1.53;1.00;;;16.00;98.20;;;;;;4953964;28;20568;-77
2021/06/25 02:44:34;;;;;;;1.50;1.00;;;16.00;98.20;;;;;;4964486;28;20475;-77
2021/06/25 02:47:01;;;;;;;1.50;1.00;;;15.90;98.20;;;;;;4952750;28;21061;-79
2021/06/25 02:49:29;;;;;;;1.60;1.10;;;15.90;98.20;;;;;;4957431;28;20486;-77
2021/06/25 02:51:56;;;;;;;1.50;1.00;;;15.90;98.20;;;;;;4946373;28;20997;-77
2021/06/25 02:54:23;;;;;;;1.50;1.00;;;15.90;98.20;;;;;;4963914;28;20486;-78
2021/06/25 02:56:50;;;;;;;1.50;1.00;;;15.80;98.20;;;;;;4958835;28;20504;-78
2021/06/25 02:59:16;;;;;;;1.60;1.10;;;15.80;98.20;;;;;;4965766;28;20984;-78
2021/06/25 03:01:43;;;;;;;1.50;1.00;;;15.80;98.20;;;;;;4958201;28;21210;-77
2021/06/25 03:04:10;;;;;;;1.50;1.00;;;15.80;98.20;;;;;;4964756;28;20462;-76
2021/06/25 03:06:38;;;;;;;1.60;1.00;;;15.70;98.20;;;;;;4959865;28;20486;-78
2021/06/25 03:09:05;;;;;;;1.50;1.10;;;15.70;98.20;;;;;;4965908;28;20872;-77
2021/06/25 03:11:32;;;;;;;1.53;1.00;;;15.70;98.20;;;;;;4953681;28;20548;-76
2021/06/25 03:13:59;;;;;;;1.50;1.00;;;15.60;98.20;;;;;;4963972;28;20496;-76
2021/06/25 03:16:25;;;;;;;1.50;0.90;;;15.60;98.20;;;;;;4955919;28;20863;-77
2021/06/25 03:18:52;;;;;;;1.53;1.00;;;15.60;98.20;;;;;;4964254;28;20500;-77
2021/06/25 03:21:19;;;;;;;1.50;1.00;;;15.60;98.20;;;;;;4961614;28;20897;-77
2021/06/25 03:23:47;;;;;;;1.60;1.10;;;15.60;98.20;;;;;;4978469;28;20459;-76
2021/06/25 03:26:14;;;;;;;1.50;0.90;;;15.50;98.20;;;;;;4965252;28;20485;-77
2021/06/25 03:28:41;;;;;;;1.53;1.00;;;15.50;98.20;;;;;;4980211;28;20501;-77
2021/06/25 03:31:09;;;;;;;1.53;1.03;;;15.50;98.20;;;;;;4965351;28;21005;-78
2021/06/25 03:33:36;;;;;;;1.50;1.10;;;15.50;98.20;;;;;;4979560;28;20466;-77
2021/06/25 03:36:03;;;;;;;1.60;1.10;;;15.50;98.20;;;;;;4955201;28;20466;-78
2021/06/25 03:38:32;;;;;;;1.50;1.00;;;15.50;98.20;;;;;;4966433;28;20463;-76
2021/06/25 03:41:00;;;;;;;1.50;1.00;;;15.60;98.20;;;;;;4953750;28;20957;-77
2021/06/25 03:43:26;;;;;;;1.50;1.00;;;15.60;98.20;;;;;;4968172;28;20469;-78
2021/06/25 03:45:53;;;;;;;1.50;1.00;;;15.60;98.20;;;;;;4958803;28;20466;-77
2021/06/25 03:48:20;;;;;;;1.50;1.00;;;15.60;98.20;;;;;;4967351;28;20953;-76
2021/06/25 03:50:47;;;;;;;1.50;1.00;;;15.60;98.20;;;;;;4954144;28;20530;-77
2021/06/25 03:53:14;;;;;;;1.50;0.90;;;15.60;98.20;;;;;;4961550;28;20459;-76
2021/06/25 03:56:09;;;;;;;1.83;1.50;;;15.60;98.20;;;;;;4967945;28;20501;-78
2021/06/25 03:58:30;;;;;;;1.53;1.00;;;15.70;98.20;;;;;;4950802;28;20607;-78
2021/06/25 04:00:56;;;;;;;1.50;1.00;;;15.70;98.20;;;;;;4960630;28;20525;-77
2021/06/25 04:03:23;;;;;;;1.50;1.00;;;15.80;98.20;;;;;;4960719;28;20471;-78
2021/06/25 04:05:50;;;;;;;1.50;1.10;;;15.80;98.20;;;;;;4960971;28;20807;-77
2021/06/25 04:08:18;;;;;;;1.50;1.00;;;15.90;98.20;;;;;;4963315;28;20472;-77
2021/06/25 04:10:45;;;;;;;1.50;1.00;;;15.90;98.20;;;;;;4972249;28;20490;-77
2021/06/25 04:13:12;;;;;;;1.50;0.97;;;15.90;98.20;;;;;;4973760;28;21004;-78
2021/06/25 04:15:40;;;;;;;1.57;1.00;;;16.00;98.20;;;;;;4972214;28;21030;-77
2021/06/25 04:18:07;;;;;;;1.50;1.10;;;16.00;98.20;;;;;;4957130;28;20486;-78
2021/06/25 04:20:34;;;;;;;1.53;1.03;;;16.00;98.20;;;;;;4966607;28;20516;-77
2021/06/25 04:23:01;;;;;;;1.50;1.10;;;16.00;98.20;;;;;;4975452;28;20493;-77
2021/06/25 04:25:28;;;;;;;1.50;1.00;;;16.10;98.20;;;;;;4967663;28;20819;-78
2021/06/25 04:27:55;;;;;;;1.50;0.93;;;16.10;98.20;;;;;;4957709;28;21000;-78
2021/06/25 04:30:23;;;;;;;1.50;1.00;;;16.10;98.20;;;;;;4964124;28;20493;-78
2021/06/25 04:32:51;;;;;;;1.50;1.07;;;16.10;98.20;;;;;;4953025;28;21017;-76
2021/06/25 04:35:18;;;;;;;1.50;1.10;;;16.10;98.20;;;;;;4963060;28;20490;-76
2021/06/25 04:37:45;;;;;;;1.53;1.00;;;16.10;98.20;;;;;;4954833;28;20493;-76
2021/06/25 04:40:13;;;;;;;1.50;1.00;;;16.10;98.20;;;;;;4962479;28;20569;-77
2021/06/25 04:42:41;;;;;;;1.53;1.00;;;16.20;98.20;;;;;;4958627;28;20481;-75
2021/06/25 04:45:09;;;;;;;1.50;1.00;;;16.20;98.20;;;;;;4968885;28;20474;-76
2021/06/25 04:47:36;;;;;;;1.50;1.00;;;16.20;98.20;;;;;;4951881;28;20934;-76
2021/06/25 04:50:04;;;;;;;1.50;1.00;;;16.20;98.20;;;;;;4968980;28;20512;-75
2021/06/25 04:52:31;;;;;;;1.50;1.00;;;16.20;98.20;;;;;;4968767;28;20757;-76
2021/06/25 04:54:58;;;;;;;1.50;1.00;;;16.20;98.20;;;;;;4970304;28;20490;-76
2021/06/25 04:57:25;;;;;;;1.50;1.00;;;16.20;98.20;;;;;;4973559;28;20543;-76
2021/06/25 04:59:52;;;;;;;1.50;1.00;;;16.30;98.20;;;;;;4972262;28;20516;-77
2021/06/25 05:02:18;;;;;;;1.50;1.00;;;16.30;98.20;;;;;;4960253;28;20525;-77
2021/06/25 05:04:45;;;;;;;1.50;1.00;;;16.40;98.20;;;;;;4965473;28;20561;-77
2021/06/25 05:07:13;;;;;;;1.50;0.90;;;16.40;98.20;;;;;;4971499;28;20481;-77
2021/06/25 05:09:40;;;;;;;1.50;1.00;;;16.50;98.20;;;;;;4974756;28;20697;-77
2021/06/25 05:12:08;;;;;;;1.50;1.00;;;16.50;98.20;;;;;;4954218;28;20509;-77
2021/06/25 05:14:35;;;;;;;1.57;1.00;;;16.60;98.20;;;;;;4964982;28;20493;-76
2021/06/25 05:17:02;;;;;;;1.50;1.00;;;16.80;98.20;;;;;;4949858;28;20881;-76
2021/06/25 05:19:29;;;;;;;1.93;1.73;;;16.90;98.20;;;;;;4961059;28;20943;-76
2021/06/25 05:21:56;;;;;;;1.53;1.10;;;17.10;98.20;;;;;;4964142;28;20488;-76
2021/06/25 05:24:25;;;;;;;1.50;0.90;;;17.20;98.20;;;;;;4973764;28;20465;-76
2021/06/25 05:26:52;;;;;;;1.50;1.00;;;17.50;98.20;;;;;;4965900;28;20477;-76
2021/06/25 05:29:18;;;;;;;1.50;1.00;;;17.70;98.20;;;;;;4976012;28;21021;-76
2021/06/25 05:31:45;;;;;;;1.53;0.90;;;17.90;98.20;;;;;;4958444;28;20576;-76
2021/06/25 05:34:12;;;;;;;1.50;0.90;;;18.20;98.20;;;;;;4960364;28;20572;-77
2021/06/25 05:36:39;;;;;;;1.53;1.00;;;18.40;98.20;;;;;;4943195;28;20532;-76
2021/06/25 05:39:06;;;;;;;1.50;1.00;;;18.60;97.00;;;;;;4965477;28;20488;-76
2021/06/25 05:41:36;;;;;;;1.50;1.00;;;18.80;97.00;;;;;;4962724;28;20583;-77
2021/06/25 05:44:03;;;;;;;1.87;1.37;;;19.00;95.90;;;;;;4974537;28;20477;-77
2021/06/25 05:46:30;;;;;;;1.50;0.90;;;19.30;95.30;;;;;;4958537;28;20592;-77
2021/06/25 05:48:57;;;;;;;1.50;0.90;;;19.40;94.90;;;;;;4975202;28;20853;-77
2021/06/25 05:51:25;;;;;;;1.60;1.27;;;19.60;93.90;;;;;;4962462;28;20481;-77
2021/06/25 05:53:52;;;;;;;1.50;1.00;;;19.70;93.50;;;;;;4978467;28;20950;-77
2021/06/25 05:56:19;;;;;;;1.50;1.00;;;19.90;93.30;;;;;;4956582;28;20489;-76
2021/06/25 05:58:47;;;;;;;1.50;1.00;;;20.00;92.80;;;;;;4977545;28;20576;-77
2021/06/25 06:01:14;;;;;;;1.50;0.90;;;20.10;92.50;;;;;;4950310;28;20477;-77
2021/06/25 06:03:41;;;;;;;1.50;0.90;;;20.10;92.10;;;;;;4963615;28;20473;-77
2021/06/25 06:06:08;;;;;;;1.57;0.90;;;20.30;92.00;;;;;;4951454;28;20565;-77
2021/06/25 06:08:36;;;;;;;1.50;0.90;;;20.50;91.80;;;;;;4956175;28;20477;-77
2021/06/25 06:11:03;;;;;;;1.50;0.90;;;20.70;91.20;;;;;;4958352;28;20466;-78
2021/06/25 06:13:29;;;;;;;1.50;0.90;;;21.00;90.50;;;;;;4975660;28;21024;-76
2021/06/25 06:15:58;;;;;;;1.50;0.90;;;21.20;89.10;;;;;;4953755;28;21132;-76
2021/06/25 06:18:28;;;;;;;1.50;0.90;;;21.30;88.70;;;;;;4959772;28;20470;-77
2021/06/25 06:20:54;;;;;;;1.50;0.90;;;21.30;88.30;;;;;;4956512;28;21006;-77
2021/06/25 06:31:38;;;;;;;1.50;0.90;;;21.50;85.10;;;;;;4953398;28;20549;-77
2021/06/25 06:34:09;;;;;;;1.50;0.97;;;21.60;85.60;;;;;;4967400;28;20470;-76
2021/06/25 06:36:41;;;;;;;1.50;0.90;;;21.70;84.40;;;;;;4964179;28;20486;-77
2021/06/25 06:39:08;;;;;;;1.50;0.90;;;21.70;83.50;;;;;;4978274;28;20504;-77
2021/06/25 06:41:37;;;;;;;1.53;0.93;;;21.80;84.00;;;;;;4955546;28;20487;-78
2021/06/25 06:44:05;;;;;;;1.50;0.90;;;22.00;83.00;;;;;;4964574;28;21000;-77
2021/06/25 06:46:32;;;;;;;1.50;0.90;;;22.20;82.30;;;;;;4951488;28;20606;-76
2021/06/25 06:49:01;;;;;;;1.50;1.00;;;22.20;82.20;;;;;;4961757;28;20896;-77
2021/06/25 06:51:28;;;;;;;1.53;0.90;;;22.30;81.90;;;;;;4950987;28;20557;-76
2021/06/25 06:53:56;;;;;;;1.50;0.90;;;22.40;81.10;;;;;;4967603;28;20462;-76
2021/06/25 06:56:25;;;;;;;1.50;0.90;;;22.40;81.10;;;;;;4955503;28;21007;-77
2021/06/25 06:58:53;;;;;;;1.50;0.90;;;22.50;80.60;;;;;;4966285;28;20760;-77
2021/06/25 07:01:21;;;;;;;1.50;0.90;;;22.60;80.30;;;;;;4958246;28;20520;-77
2021/06/25 07:03:48;;;;;;;1.50;0.90;;;22.60;80.30;;;;;;4963028;28;20944;-77
2021/06/25 07:06:17;;;;;;;1.50;1.00;;;22.60;81.00;;;;;;4961712;28;20489;-77
2021/06/25 07:08:44;;;;;;;1.50;0.90;;;22.70;80.00;;;;;;4975593;28;20537;-77
2021/06/25 07:11:11;;;;;;;1.50;1.00;;;22.70;80.60;;;;;;4956150;28;20789;-77
2021/06/25 07:13:38;;;;;;;1.50;0.90;;;22.80;81.30;;;;;;4963371;28;20472;-77
2021/06/25 07:16:06;;;;;;;1.70;1.20;;;23.00;81.10;;;;;;4958878;28;20593;-75
2021/06/25 07:18:32;;;;;;;1.50;0.90;;;23.00;79.70;;;;;;4964687;28;20473;-77
2021/06/25 07:21:04;;;;;;;1.50;0.90;;;23.20;79.50;;;;;;4958392;28;20786;-75
2021/06/25 07:23:32;;;;;;;1.50;0.90;;;23.50;78.70;;;;;;4982564;28;20466;-77
2021/06/25 07:25:59;;;;;;;1.50;0.90;;;23.70;77.80;;;;;;4962528;28;20549;-76
2021/06/25 07:28:26;;;;;;;1.50;0.90;;;23.90;76.00;;;;;;4983584;28;20508;-75
2021/06/25 07:30:53;;;;;;;1.50;0.90;;;24.00;75.60;;;;;;4957609;28;20950;-75
2021/06/25 07:33:20;;;;;;;1.60;1.13;;;24.00;74.60;;;;;;4984601;28;20469;-77
2021/06/25 07:35:46;;;;;;;1.53;0.90;;;24.20;73.50;;;;;;4953574;28;20490;-78
2021/06/25 07:38:13;;;;;;;1.50;0.90;;;24.30;74.00;;;;;;4966006;28;20470;-77
2021/06/25 07:40:42;;;;;;;1.50;0.90;;;24.30;73.40;;;;;;4964786;28;20895;-77
2021/06/25 07:43:09;;;;;;;1.50;0.90;;;24.30;74.70;;;;;;4952252;28;20487;-77
2021/06/25 07:45:36;;;;;;;1.50;0.90;;;24.30;74.80;;;;;;4964277;28;20468;-78
2021/06/25 07:48:31;;;;;;;1.50;0.83;;;24.30;74.80;;;;;;4954187;28;20508;-79
2021/06/25 07:50:58;;;;;;;1.50;0.80;;;24.40;75.40;;;;;;4951507;28;20537;-78
2021/06/25 07:53:25;;;;;;;1.50;0.90;;;24.60;75.70;;;;;;4967130;28;20652;-78
2021/06/25 07:55:53;;;;;;;1.50;0.90;;;24.60;75.70;;;;;;4955449;28;20865;-77
2021/06/25 07:58:20;;;;;;;1.50;0.90;;;24.70;75.20;;;;;;4961981;28;20976;-78
2021/06/25 08:00:47;;;;;;;1.50;0.90;;;24.70;75.30;;;;;;4954550;28;20981;-78
2021/06/25 08:03:13;;;;;;;1.50;0.90;;;24.80;74.90;;;;;;4980039;28;21054;-78
2021/06/25 08:05:41;;;;;;;1.50;0.90;;;24.80;75.10;;;;;;4968464;28;20961;-78
2021/06/25 08:08:07;;;;;;;1.50;0.90;;;24.90;75.30;;;;;;4951799;28;20488;-79
2021/06/25 08:10:35;;;;;;;1.50;0.80;;;25.00;75.00;;;;;;4969023;28;20490;-77
2021/06/25 08:13:06;;;;;;;1.50;0.90;;;25.10;75.00;;;;;;4949792;28;21175;-78
2021/06/25 08:15:34;;;;;;;1.50;0.90;;;25.00;74.70;;;;;;4968688;28;20493;-78
2021/06/25 08:18:00;;;;;;;1.50;0.90;;;24.90;75.40;;;;;;4957625;28;20481;-78
2021/06/25 08:20:27;;;;;;;1.50;0.90;;;25.00;75.20;;;;;;4964511;28;20500;-77
2021/06/25 08:22:54;;;;;;;1.50;0.90;;;25.00;75.40;;;;;;4973185;28;20887;-78
2021/06/25 08:25:21;;;;;;;1.50;0.90;;;25.10;75.00;;;;;;4967032;28;20458;-78
2021/06/25 08:27:48;;;;;;;1.50;0.90;;;25.30;73.70;;;;;;4957625;28;20561;-79
2021/06/25 08:30:18;;;;;;;1.50;0.87;;;25.40;73.00;;;;;;4961224;28;20494;-77
2021/06/25 08:32:45;;;;;;;1.50;0.90;;;25.50;72.60;;;;;;4954917;28;20673;-76
2021/06/25 08:35:12;;;;;;;1.50;0.80;;;25.60;72.20;;;;;;4962442;28;20473;-77
2021/06/25 08:37:39;;;;;;;1.50;0.90;;;25.80;71.90;;;;;;4956949;28;20512;-76
2021/06/25 08:40:08;;;;;;;1.50;0.90;;;25.90;71.50;;;;;;4959515;28;20773;-76
2021/06/25 08:42:37;;;;;;;1.50;0.80;;;26.00;70.90;;;;;;4953573;28;20481;-76
2021/06/25 08:45:04;;;;;;;1.50;0.90;;;26.10;70.80;;;;;;4960286;28;20461;-76
2021/06/25 08:47:39;;;;;;;1.50;0.87;;;26.10;70.50;;;;;;4954652;28;20931;-76
2021/06/25 08:50:08;;;;;;;1.50;0.90;;;26.20;69.80;;;;;;4963753;28;20488;-76
2021/06/25 08:52:35;;;;;;;1.50;0.87;;;26.30;71.40;;;;;;4964980;28;20484;-76
2021/06/25 08:55:01;;;;;;;1.50;0.90;;;26.30;70.90;;;;;;4967384;28;20461;-76
2021/06/25 08:57:32;;;;;;;1.50;0.83;;;26.40;68.60;;;;;;4967112;28;20503;-78
2021/06/25 08:59:59;;;;;;;1.50;0.90;;;26.40;69.30;;;;;;4966198;28;20492;-76
2021/06/25 09:02:35;;;;;;;1.50;0.90;;;26.40;70.70;;;;;;4953560;28;20486;-75
2021/06/25 09:05:02;;;;;;;1.50;0.80;;;26.60;69.20;;;;;;4964360;28;20852;-76
2021/06/25 09:07:42;;;;;;;1.50;0.90;;;26.90;68.40;;;;;;4947985;28;20993;-76
2021/06/25 09:10:10;;;;;;;1.50;0.90;;;27.00;68.70;;;;;;4963936;28;20778;-77
2021/06/25 09:12:37;;;;;;;1.50;0.80;;;27.20;68.90;;;;;;4953124;28;20512;-76
2021/06/25 09:15:08;;;;;;;1.50;1.00;;;27.00;68.80;;;;;;4957464;28;20462;-76
2021/06/25 09:17:54;;;;;;;1.50;1.00;;;26.80;67.40;;;;;;4952738;28;20493;-76
2021/06/25 09:20:30;;;;;;;1.97;1.73;;;26.60;69.60;;;;;;4966404;28;20504;-75
2021/06/25 09:22:58;;;;;;;1.50;0.80;;;26.60;68.90;;;;;;4949635;28;21304;-76
2021/06/25 09:25:25;;;;;;;1.50;0.90;;;26.50;68.40;;;;;;4964402;28;20869;-75
2021/06/25 09:27:56;;;;;;;1.50;0.80;;;26.30;69.70;;;;;;4951095;28;20486;-77
2021/06/25 09:30:28;;;;;;;1.50;0.90;;;26.30;71.10;;;;;;4963434;28;20484;-76
2021/06/25 09:32:56;;;;;;;1.50;0.80;;;26.20;69.00;;;;;;4968678;28;20529;-76
2021/06/25 09:35:25;;;;;;;1.50;0.90;;;26.10;69.80;;;;;;4970020;28;20977;-76
2021/06/25 09:37:54;;;;;;;1.50;0.90;;;25.90;70.00;;;;;;4963020;28;20838;-76
2021/06/25 09:40:22;;;;;;;1.50;0.80;;;25.80;69.80;;;;;;4964708;28;20889;-76
2021/06/25 09:43:08;;;;;;;1.50;0.80;;;25.70;70.10;;;;;;4948777;28;20711;-75
2021/06/25 09:45:35;;;;;;;1.50;0.80;;;25.50;69.50;;;;;;4962750;28;20466;-77
2021/06/25 09:48:04;;;;;;;1.50;0.83;;;25.50;71.30;;;;;;4952275;28;20481;-78
2021/06/25 09:50:33;;;;;;;1.50;0.90;;;25.50;70.90;;;;;;4963156;28;20491;-77
2021/06/25 09:53:03;;;;;;;1.50;0.80;;;25.50;70.10;;;;;;4967512;28;20485;-77
2021/06/25 09:55:31;;;;;;;1.50;0.90;;;25.70;69.90;;;;;;4965872;28;20967;-77
2021/06/25 10:03:40;;;;;;;1.50;0.90;;;25.80;69.10;;;;;;4962486;28;20507;-76
2021/06/25 10:06:09;;;;;;;1.50;0.90;;;26.00;69.00;;;;;;4950449;28;20493;-76
2021/06/25 10:08:36;;;;;;;1.50;0.90;;;26.20;67.90;;;;;;4958971;28;20469;-76
2021/06/25 10:11:04;;;;;;;1.50;0.90;;;26.30;68.70;;;;;;4951562;28;20468;-77
2021/06/25 10:13:33;;;;;;;1.70;1.60;;;26.40;68.20;;;;;;4968518;28;20490;-76
2021/06/25 10:16:00;;;;;;;1.50;0.90;;;26.30;67.20;;;;;;4960493;28;20481;-78
2021/06/25 10:18:29;;;;;;;1.50;0.90;;;26.30;67.60;;;;;;4981377;28;20474;-78
2021/06/25 10:20:59;;;;;;;1.50;0.80;;;26.00;67.30;;;;;;4950772;28;20693;-77
2021/06/25 10:23:30;;;;;;;1.50;0.90;;;26.00;67.60;;;;;;4959017;28;20857;-77
2021/06/25 10:26:00;;;;;;;1.50;0.90;;;26.10;67.70;;;;;;4955506;28;20477;-76
2021/06/25 10:28:31;;;;;;;1.50;0.90;;;26.40;67.90;;;;;;4977891;28;20473;-76
2021/06/25 10:31:01;;;;;;;1.50;0.90;;;26.80;65.40;;;;;;4951418;28;20465;-76
2021/06/25 10:33:36;;;;;;;1.43;0.80;;;27.10;65.20;;;;;;4956821;28;20469;-77
2021/06/25 10:36:07;;;;;;;1.50;0.80;;;27.40;65.80;;;;;;4976349;23;20504;-78
2021/06/25 10:38:35;;;;;;;1.50;1.00;;;27.70;65.50;;;;;;4978681;28;20476;-81
2021/06/25 10:41:03;;;;;;;1.50;0.80;;;27.90;63.50;;;;;;4973589;28;20469;-78
2021/06/25 10:43:41;;;;;;;1.50;0.80;;;28.20;63.50;;;;;;4998095;28;20850;-81
2021/06/25 10:46:30;;;;;;;1.50;0.90;;;28.40;63.40;;;;;;4978439;28;21025;-79
2021/06/25 10:48:58;;;;;;;1.50;0.83;;;28.80;64.30;;;;;;4999638;28;20460;-78
2021/06/25 10:51:27;;;;;;;1.47;0.80;;;28.90;62.80;;;;;;4980746;28;21012;-79
2021/06/25 10:54:10;;;;;;;1.50;0.80;;;29.10;61.60;;;;;;4994751;28;20468;-82
2021/06/25 10:56:37;;;;;;;1.50;0.80;;;29.10;61.70;;;;;;4985394;28;20245;-79
2021/06/25 10:59:22;;;;;;;1.50;0.90;;;29.10;62.00;;;;;;4993808;28;20468;-78
2021/06/25 11:01:52;;;;;;;1.50;0.80;;;29.10;62.50;;;;;;4982871;28;20483;-80
2021/06/25 11:04:37;;;;;;;1.50;0.83;;;29.20;62.30;;;;;;4994722;28;20465;-77
2021/06/25 11:07:08;;;;;;;1.50;0.80;;;29.00;61.70;;;;;;4979460;28;20507;-80
2021/06/25 11:09:58;;;;;;;1.50;0.90;;;28.90;61.90;;;;;;4992993;28;21090;-82
2021/06/25 11:12:27;;;;;;;1.50;1.00;;;28.90;61.80;;;;;;4989602;28;20514;-80
2021/06/25 11:14:56;;;;;;;1.60;1.10;;;29.00;63.10;;;;;;4989213;28;20571;-79
2021/06/25 11:17:44;;;;;;;1.47;0.80;;;29.10;63.00;;;;;;4987143;28;20491;-80
2021/06/25 11:20:23;;;;;;;1.50;0.80;;;29.20;63.00;;;;;;4992413;28;20515;-80
2021/06/25 11:23:05;;;;;;;1.43;0.80;;;29.00;62.40;;;;;;4988483;28;20479;-79
2021/06/25 11:25:43;;;;;;;1.50;0.80;;;28.80;62.00;;;;;;4990242;28;20492;-78
2021/06/25 11:28:19;;;;;;;1.50;0.80;;;28.70;62.00;;;;;;4980317;28;20978;-80
2021/06/25 11:31:20;;;;;;;1.50;0.80;;;28.80;62.10;;;;;;4977950;28;20472;-83
2021/06/25 11:33:54;;;;;;;1.50;0.83;;;28.90;61.50;;;;;;4997780;28;20483;-78
2021/06/25 11:36:33;;;;;;;1.43;0.80;;;28.80;61.90;;;;;;4985181;28;20471;-79
2021/06/25 11:39:13;;;;;;;1.43;0.90;;;28.70;62.90;;;;;;5006370;28;20586;-81
2021/06/25 11:41:45;;;;;;;1.47;0.80;;;28.60;62.40;;;;;;4985699;28;20474;-80
2021/06/25 11:44:15;;;;;;;1.47;0.87;;;28.50;63.40;;;;;;4991898;28;20832;-79
2021/06/25 11:46:43;;;;;;;1.50;0.80;;;28.60;63.10;;;;;;4982825;28;20981;-81
2021/06/25 11:49:09;;;;;;;1.60;1.20;;;28.60;63.50;;;;;;4995402;28;20999;-80
2021/06/25 11:51:39;;;;;;;1.47;0.80;;;28.60;62.70;;;;;;4979643;28;20575;-79
2021/06/25 11:54:08;;;;;;;1.47;0.80;;;28.70;63.50;;;;;;4985087;28;20476;-81
2021/06/25 11:56:37;;;;;;;1.40;0.80;;;28.60;62.80;;;;;;4985569;28;20487;-78
2021/06/25 11:59:06;;;;;;;1.47;0.90;;;28.70;63.90;;;;;;4998073;28;21038;-81
2021/06/25 12:01:34;;;;;;;1.47;0.80;;;28.80;62.40;;;;;;4977626;28;20901;-79
2021/06/25 12:04:02;;;;;;;1.43;0.80;;;28.90;62.90;;;;;;4981959;28;20475;-79
2021/06/25 12:06:28;;;;;;;1.47;0.80;;;29.10;62.10;;;;;;4976415;28;20665;-83
2021/06/25 12:09:00;;;;;;;1.47;0.80;;;29.20;62.10;;;;;;4992052;28;20465;-82
2021/06/25 12:11:27;;;;;;;1.50;0.80;;;29.40;61.20;;;;;;4983594;28;20475;-81
2021/06/25 12:14:04;;;;;;;1.50;0.80;;;29.50;62.20;;;;;;4996719;28;20692;-79
2021/06/25 12:16:32;;;;;;;1.43;0.80;;;29.50;61.10;;;;;;4981505;28;20566;-79
2021/06/25 12:19:00;;;;;;;1.43;0.80;;;29.30;61.80;;;;;;4990663;28;20471;-80
2021/06/25 12:21:28;;;;;;;1.50;1.00;;;29.20;61.90;;;;;;4975441;28;20485;-80
2021/06/25 12:23:56;;;;;;;1.43;0.80;;;29.10;61.10;;;;;;4982037;28;20532;-79
2021/06/25 12:26:25;;;;;;;1.47;0.80;;;29.30;62.80;;;;;;4980010;28;21082;-78
2021/06/25 12:28:53;;;;;;;1.50;0.80;;;29.40;62.00;;;;;;4994643;28;20498;-81
2021/06/25 12:31:24;;;;;;;1.43;0.80;;;29.80;62.40;;;;;;4981130;28;20848;-80
2021/06/25 12:34:02;;;;;;;1.47;0.80;;;29.90;62.10;;;;;;4990536;28;20193;-79
2021/06/25 12:36:28;;;;;;;1.47;0.80;;;30.00;61.50;;;;;;4981836;28;20502;-80
2021/06/25 12:39:00;;;;;;;1.47;0.80;;;30.10;61.30;;;;;;4996729;28;20465;-79
2021/06/25 12:41:27;;;;;;;1.47;0.80;;;30.20;62.30;;;;;;4980473;28;20926;-78
2021/06/25 12:43:55;;;;;;;1.47;0.80;;;30.10;61.00;;;;;;4998031;28;20212;-79
2021/06/25 12:46:26;;;;;;;1.47;0.80;;;30.00;62.20;;;;;;4978061;28;20239;-80
2021/06/25 12:48:54;;;;;;;1.47;0.80;;;30.00;61.00;;;;;;4995034;28;20206;-79
2021/06/25 12:51:23;;;;;;;1.50;0.80;;;29.80;61.10;;;;;;4977337;28;20488;-82
2021/06/25 12:53:54;;;;;;;1.40;0.80;;;29.70;60.80;;;;;;4984268;28;20469;-79
2021/06/25 12:56:23;;;;;;;1.47;0.80;;;29.80;61.10;;;;;;4982226;28;20237;-80
2021/06/25 12:58:56;;;;;;;1.50;1.00;;;30.00;61.30;;;;;;4994741;28;20452;-80
2021/06/25 13:01:24;;;;;;;1.50;1.00;;;30.00;60.70;;;;;;4981566;28;20244;-79
2021/06/25 13:03:51;;;;;;;1.43;0.80;;;29.90;61.90;;;;;;4991848;28;20202;-79
2021/06/25 13:06:30;;;;;;;1.47;0.80;;;29.70;61.20;;;;;;4978413;28;21255;-81
2021/06/25 13:08:57;;;;;;;1.47;0.80;;;29.50;59.90;;;;;;4978025;28;20469;-82
2021/06/25 13:11:27;;;;;;;1.77;0.90;;;29.30;61.10;;;;;;4977979;28;20484;-81